Time;durP1;ratioP1;P1;durP2;ratioP2;P2;SDS_P1;SDS_P2;PMS_P1;PMS_P2;Temp;Humidity;BMP_temperature;BMP_pressure;BME280_temperature;BME280_humidity;BME280_pressure;Samples;Min_cycle;Max_cycle;Signal;HPM_P1;HPM_P2
2023/05/28 00:01:54;;;;;;;12.32;6.18;;;;;;;-148.88;88.67;-17125.47;5029333;28;20140;-74
2023/05/28 00:04:21;;;;;;;13.35;6.55;;;;;;;-148.88;88.55;-17125.47;5014160;28;20092;-75
2023/05/28 00:06:48;;;;;;;11.65;6.00;;;;;;;-148.88;89.47;-17125.47;5013968;28;20022;-74
2023/05/28 00:09:14;;;;;;;13.25;6.60;;;;;;;-148.88;89.85;-17125.47;5014033;28;20037;-75
2023/05/28 00:11:40;;;;;;;12.90;6.20;;;;;;;-148.88;89.70;-17125.47;5013980;28;20026;-74
2023/05/28 00:14:05;;;;;;;12.02;6.43;;;;;;;-148.88;90.64;-17125.47;5013954;28;20025;-75
2023/05/28 00:16:31;;;;;;;13.63;6.80;;;;;;;-148.88;91.48;-17125.47;5012541;28;20048;-75
2023/05/28 00:18:56;;;;;;;9.52;5.95;;;;;;;-148.88;91.98;-17125.47;5013730;28;20034;-74
2023/05/28 00:21:21;;;;;;;11.30;6.05;;;;;;;-148.88;91.23;-17125.47;5012545;28;20029;-74
2023/05/28 00:23:47;;;;;;;11.52;5.90;;;;;;;-148.88;92.81;-17125.47;5013727;28;20109;-74
2023/05/28 00:26:12;;;;;;;12.23;6.20;;;;;;;-148.88;92.81;-17125.47;5013648;28;20053;-75
2023/05/28 00:28:37;;;;;;;11.10;6.57;;;;;;;-148.88;93.88;-17125.47;5013652;28;20141;-75
2023/05/28 00:31:03;;;;;;;10.27;6.20;;;;;;;-148.88;94.05;-17125.47;5013682;28;20028;-75
2023/05/28 00:33:28;;;;;;;14.70;7.75;;;;;;;-148.88;93.59;-17125.47;5013574;28;20096;-75
2023/05/28 00:35:55;;;;;;;13.43;8.32;;;;;;;-148.88;94.47;-17125.47;5013597;28;20026;-75
2023/05/28 00:38:21;;;;;;;13.82;7.05;;;;;;;-148.88;94.28;-17125.47;5012531;28;20470;-74
2023/05/28 00:40:47;;;;;;;12.73;6.88;;;;;;;-148.88;93.33;-17125.47;5013745;28;20532;-74
2023/05/28 00:43:12;;;;;;;11.63;6.70;;;;;;;-148.88;93.84;-17125.47;5012143;28;20021;-74
2023/05/28 00:45:38;;;;;;;13.10;6.55;;;;;;;-148.88;94.14;-17125.47;5013249;28;20017;-74
2023/05/28 00:48:03;;;;;;;17.00;7.15;;;;;;;-148.88;94.31;-17125.47;5013609;28;20547;-75
2023/05/28 00:50:28;;;;;;;11.88;7.05;;;;;;;-148.88;94.75;-17125.47;5013400;28;20040;-75
2023/05/28 00:52:55;;;;;;;14.32;6.80;;;;;;;-148.88;95.80;-17125.47;5013346;28;20481;-74
2023/05/28 00:55:21;;;;;;;15.07;6.72;;;;;;;-148.88;95.54;-17125.47;5011731;28;20479;-75
2023/05/28 00:57:53;;;;;;;14.43;6.90;;;;;;;-148.88;96.55;-17125.47;5011869;28;20022;-74
2023/05/28 01:00:18;;;;;;;12.40;7.38;;;;;;;-148.88;97.80;-17125.47;5011902;28;20527;-75
2023/05/28 01:02:44;;;;;;;13.85;7.35;;;;;;;-148.88;98.69;-17125.47;5013070;28;20029;-75
2023/05/28 01:05:09;;;;;;;12.38;7.25;;;;;;;-148.88;99.08;-17125.47;5011881;28;20396;-75
2023/05/28 01:07:35;;;;;;;17.63;8.20;;;;;;;-148.88;99.72;-17125.47;5011665;28;20112;-74
2023/05/28 01:10:02;;;;;;;10.93;7.05;;;;;;;-148.88;99.23;-17125.47;5011737;28;20036;-74
2023/05/28 01:12:28;;;;;;;13.13;8.15;;;;;;;-148.88;100.00;-17125.47;5012993;28;20022;-75
2023/05/28 01:14:54;;;;;;;12.88;7.68;;;;;;;-148.88;100.00;-17125.47;5012842;28;20484;-74
2023/05/28 01:17:20;;;;;;;18.33;8.15;;;;;;;-148.88;100.00;-17125.47;5013429;28;20033;-74
2023/05/28 01:19:47;;;;;;;12.57;7.88;;;;;;;-148.88;100.00;-17125.47;5013063;28;20503;-75
2023/05/28 01:22:16;;;;;;;13.75;8.43;;;;;;;-148.88;100.00;-17125.47;5012797;28;20025;-75
2023/05/28 01:24:44;;;;;;;12.00;8.25;;;;;;;-148.88;100.00;-17125.47;5012838;28;20405;-75
2023/05/28 01:27:11;;;;;;;12.27;7.82;;;;;;;-148.88;99.83;-17125.47;5012795;28;20022;-75
2023/05/28 01:29:36;;;;;;;12.82;8.20;;;;;;;-148.88;100.00;-17125.47;5012757;28;20477;-74
2023/05/28 01:32:03;;;;;;;11.25;8.05;;;;;;;-148.88;100.00;-17125.47;5012726;28;20026;-75
2023/05/28 01:34:28;;;;;;;13.55;8.52;;;;;;;-148.88;100.00;-17125.47;5012705;28;20049;-74
2023/05/28 01:37:03;;;;;;;17.58;9.13;;;;;;;-148.88;99.31;-17125.47;5012738;28;20473;-75
2023/05/28 01:39:36;;;;;;;15.27;7.85;;;;;;;-148.88;99.81;-17125.47;5011414;28;20418;-74
2023/05/28 01:42:02;;;;;;;17.35;8.45;;;;;;;-148.88;100.00;-17125.47;5013113;28;20022;-75
2023/05/28 01:44:29;;;;;;;14.13;8.48;;;;;;;-148.88;100.00;-17125.47;5012651;28;20034;-74
2023/05/28 01:46:55;;;;;;;15.43;8.02;;;;;;;-148.88;100.00;-17125.47;5012904;28;20033;-74
2023/05/28 01:49:21;;;;;;;14.20;7.80;;;;;;;-148.88;100.00;-17125.47;5012642;28;20397;-74
2023/05/28 01:51:46;;;;;;;12.95;8.05;;;;;;;-148.88;100.00;-17125.47;5011496;28;20112;-74
2023/05/28 01:54:12;;;;;;;11.68;7.25;;;;;;;-148.88;100.00;-17125.47;5012530;28;20105;-74
2023/05/28 01:56:37;;;;;;;14.52;8.27;;;;;;;-148.88;100.00;-17125.47;5016380;28;20166;-74
2023/05/28 01:59:03;;;;;;;12.20;7.15;;;;;;;-148.88;100.00;-17125.47;5016391;28;20431;-75
2023/05/28 02:01:36;;;;;;;11.85;7.03;;;;;;;-148.88;100.00;-17125.47;5016384;28;20069;-74
2023/05/28 02:04:02;;;;;;;14.80;7.55;;;;;;;-148.88;100.00;-17125.47;5016002;28;20365;-74
2023/05/28 02:06:30;;;;;;;11.15;6.88;;;;;;;-148.88;100.00;-17125.47;5015319;28;20552;-74
2023/05/28 02:08:55;;;;;;;14.40;8.43;;;;;;;-148.88;100.00;-17125.47;5015000;28;20025;-74
2023/05/28 02:11:21;;;;;;;17.42;9.82;;;;;;;-148.88;100.00;-17125.47;5016194;28;20403;-74
2023/05/28 02:13:48;;;;;;;13.27;8.02;;;;;;;-148.88;100.00;-17125.47;5016058;28;20068;-74
2023/05/28 02:16:17;;;;;;;12.93;8.20;;;;;;;-148.88;100.00;-17125.47;5016059;28;20052;-74
2023/05/28 02:18:44;;;;;;;14.35;7.78;;;;;;;-148.88;100.00;-17125.47;5015831;28;20212;-74
2023/05/28 02:21:10;;;;;;;13.63;7.57;;;;;;;-148.88;100.00;-17125.47;5014735;28;20033;-74
2023/05/28 02:23:38;;;;;;;14.82;8.38;;;;;;;-148.88;100.00;-17125.47;5014720;28;20022;-74
2023/05/28 02:26:03;;;;;;;12.18;7.78;;;;;;;-148.88;100.00;-17125.47;5014571;28;20021;-75
2023/05/28 02:28:28;;;;;;;11.48;6.93;;;;;;;-148.88;100.00;-17125.47;5016066;28;20129;-74
2023/05/28 02:30:54;;;;;;;15.57;8.68;;;;;;;-148.88;100.00;-17125.47;5015982;28;20026;-74
2023/05/28 02:33:19;;;;;;;15.93;9.60;;;;;;;-148.88;100.00;-17125.47;5015785;28;20033;-74
2023/05/28 02:35:44;;;;;;;17.23;9.70;;;;;;;-148.88;100.00;-17125.47;5015503;28;20030;-74
2023/05/28 02:38:10;;;;;;;12.63;8.10;;;;;;;-148.88;100.00;-17125.47;5015833;28;20030;-74
2023/05/28 02:40:35;;;;;;;12.93;7.60;;;;;;;-148.88;100.00;-17125.47;5015620;28;20505;-74
2023/05/28 02:43:00;;;;;;;12.98;7.82;;;;;;;-148.88;100.00;-17125.47;5015610;28;20396;-74
2023/05/28 02:45:26;;;;;;;13.73;8.27;;;;;;;-148.88;100.00;-17125.47;5015718;28;20018;-74
2023/05/28 02:47:51;;;;;;;16.02;9.60;;;;;;;-148.88;100.00;-17125.47;5015525;28;20076;-74
2023/05/28 02:50:16;;;;;;;15.35;9.35;;;;;;;-148.88;100.00;-17125.47;5015322;28;20033;-74
2023/05/28 02:52:42;;;;;;;15.30;10.52;;;;;;;-148.88;100.00;-17125.47;5015388;28;20110;-74
2023/05/28 02:55:07;;;;;;;16.58;9.77;;;;;;;-148.88;100.00;-17125.47;5014036;28;20026;-74
2023/05/28 02:57:33;;;;;;;18.73;9.38;;;;;;;-148.88;100.00;-17125.47;5015319;28;20485;-74
2023/05/28 02:59:58;;;;;;;17.33;9.43;;;;;;;-148.88;100.00;-17125.47;5015128;28;20072;-74
2023/05/28 03:02:23;;;;;;;16.05;9.02;;;;;;;-148.88;100.00;-17125.47;5015144;28;20108;-74
2023/05/28 03:04:49;;;;;;;15.07;8.27;;;;;;;-148.88;100.00;-17125.47;5013854;28;20101;-74
2023/05/28 03:07:14;;;;;;;14.75;8.48;;;;;;;-148.88;100.00;-17125.47;5014234;28;20037;-74
2023/05/28 03:09:41;;;;;;;15.60;8.75;;;;;;;-148.88;100.00;-17125.47;5015044;28;20513;-74
2023/05/28 03:12:06;;;;;;;13.93;8.57;;;;;;;-148.88;100.00;-17125.47;5014928;28;20401;-74
2023/05/28 03:14:32;;;;;;;11.30;7.82;;;;;;;-148.88;100.00;-17125.47;5014865;28;20477;-74
2023/05/28 03:16:57;;;;;;;15.48;8.60;;;;;;;-148.88;100.00;-17125.47;5014882;28;20021;-74
2023/05/28 03:19:23;;;;;;;11.15;7.43;;;;;;;-148.88;100.00;-17125.47;5014764;28;20025;-74
2023/05/28 03:21:48;;;;;;;14.60;7.63;;;;;;;-148.88;100.00;-17125.47;5013510;28;20022;-74
2023/05/28 03:24:14;;;;;;;12.38;7.43;;;;;;;-148.88;100.00;-17125.47;5013465;28;20068;-74
2023/05/28 03:26:39;;;;;;;15.30;7.97;;;;;;;-148.88;100.00;-17125.47;5014740;28;20444;-74
2023/05/28 03:29:05;;;;;;;14.98;7.50;;;;;;;-148.88;100.00;-17125.47;5014784;28;20026;-75
2023/05/28 03:31:30;;;;;;;12.95;7.45;;;;;;;-148.88;100.00;-17125.47;5014659;28;20029;-75
2023/05/28 03:33:56;;;;;;;13.85;7.05;;;;;;;-148.88;100.00;-17125.47;5014658;28;20029;-75
2023/05/28 03:36:22;;;;;;;13.35;7.80;;;;;;;-148.88;100.00;-17125.47;5013356;28;20496;-74
2023/05/28 03:38:47;;;;;;;10.82;7.22;;;;;;;-148.88;100.00;-17125.47;5014763;28;20076;-74
2023/05/28 03:41:13;;;;;;;14.90;8.10;;;;;;;-148.88;100.00;-17125.47;5014665;28;20025;-75
2023/05/28 03:43:38;;;;;;;14.00;7.93;;;;;;;-148.88;100.00;-17125.47;5014762;28;20084;-74
2023/05/28 03:46:04;;;;;;;14.70;8.75;;;;;;;-148.88;100.00;-17125.47;5014416;28;20106;-75
2023/05/28 03:48:29;;;;;;;12.48;8.85;;;;;;;-148.88;100.00;-17125.47;5014432;28;20026;-74
2023/05/28 03:50:55;;;;;;;12.73;8.90;;;;;;;-148.88;100.00;-17125.47;5014270;28;20080;-75
2023/05/28 03:53:21;;;;;;;21.27;9.45;;;;;;;-148.88;100.00;-17125.47;5014268;28;20104;-75
2023/05/28 03:55:46;;;;;;;14.20;8.80;;;;;;;-148.88;100.00;-17125.47;5012825;28;20053;-74
2023/05/28 03:58:14;;;;;;;18.30;9.73;;;;;;;-148.88;100.00;-17125.47;5014143;28;20427;-74
2023/05/28 04:00:39;;;;;;;13.00;6.15;;;;;;;-148.88;100.00;-17125.47;5012789;28;20097;-74
2023/05/28 04:03:05;;;;;;;14.50;9.00;;;;;;;-148.88;100.00;-17125.47;5014034;28;20104;-75
2023/05/28 04:05:30;;;;;;;15.93;10.18;;;;;;;-148.88;100.00;-17125.47;5014073;28;20017;-75
2023/05/28 04:07:56;;;;;;;14.68;9.40;;;;;;;-148.88;100.00;-17125.47;5014048;28;20026;-75
2023/05/28 04:10:21;;;;;;;15.98;9.85;;;;;;;-148.88;100.00;-17125.47;5013933;28;20508;-74
2023/05/28 04:12:47;;;;;;;17.17;9.52;;;;;;;-148.88;100.00;-17125.47;5013879;28;20492;-74
2023/05/28 04:15:12;;;;;;;21.27;9.38;;;;;;;-148.88;100.00;-17125.47;5012413;28;20483;-74
2023/05/28 04:17:37;;;;;;;13.70;8.90;;;;;;;-148.88;100.00;-17125.47;5013588;28;20022;-75
2023/05/28 04:20:06;;;;;;;15.18;9.35;;;;;;;-148.88;100.00;-17125.47;5012636;28;20057;-74
2023/05/28 04:22:33;;;;;;;20.33;9.95;;;;;;;-148.88;100.00;-17125.47;5013937;28;20049;-74
2023/05/28 04:24:59;;;;;;;16.02;9.65;;;;;;;-148.88;100.00;-17125.47;5012262;28;20020;-74
2023/05/28 04:27:24;;;;;;;14.82;5.70;;;;;;;-148.88;100.00;-17125.47;5013692;28;20022;-74
2023/05/28 04:29:52;;;;;;;17.65;10.05;;;;;;;-148.88;100.00;-17125.47;5013630;28;20051;-75
2023/05/28 04:32:17;;;;;;;17.48;10.15;;;;;;;-148.88;100.00;-17125.47;5013504;28;20029;-75
2023/05/28 04:34:43;;;;;;;14.98;10.07;;;;;;;-148.88;100.00;-17125.47;5013412;28;20033;-76
2023/05/28 04:37:08;;;;;;;17.95;9.95;;;;;;;-148.88;100.00;-17125.47;5013574;28;20036;-76
2023/05/28 04:39:34;;;;;;;19.45;5.70;;;;;;;-148.88;100.00;-17125.47;5013384;28;20028;-76
2023/05/28 04:42:03;;;;;;;22.55;9.90;;;;;;;-148.88;100.00;-17125.47;5012158;28;20030;-76
2023/05/28 04:44:30;;;;;;;16.20;9.35;;;;;;;-148.88;100.00;-17125.47;5013759;28;20503;-75
2023/05/28 04:46:58;;;;;;;11.60;5.85;;;;;;;-148.88;100.00;-17125.47;5013251;28;20542;-75
2023/05/28 04:49:24;;;;;;;14.77;8.95;;;;;;;-148.88;100.00;-17125.47;5013180;28;20018;-75
2023/05/28 04:51:50;;;;;;;14.57;9.23;;;;;;;-148.88;100.00;-17125.47;5013132;28;20026;-75
2023/05/28 04:54:15;;;;;;;13.57;5.80;;;;;;;-148.88;100.00;-17125.47;5013484;28;20021;-75
2023/05/28 04:56:41;;;;;;;15.02;9.60;;;;;;;-148.88;100.00;-17125.47;5018030;28;20025;-74
2023/05/28 04:59:09;;;;;;;16.58;9.50;;;;;;;-148.88;100.00;-17125.47;5012045;28;20017;-75
2023/05/28 05:01:38;;;;;;;15.68;9.57;;;;;;;-148.88;100.00;-17125.47;5013359;28;20096;-75
2023/05/28 05:04:05;;;;;;;15.35;11.05;;;;;;;-148.88;100.00;-17125.47;5011778;28;20030;-76
2023/05/28 05:06:31;;;;;;;18.52;9.77;;;;;;;-148.88;100.00;-17125.47;5011852;28;20560;-76
2023/05/28 05:08:56;;;;;;;11.50;5.88;;;;;;;-148.88;100.00;-17125.47;5013093;28;20052;-76
2023/05/28 05:11:21;;;;;;;16.20;9.75;;;;;;;-148.88;100.00;-17125.47;5013100;28;20075;-76
2023/05/28 05:13:47;;;;;;;16.75;10.18;;;;;;;-148.88;100.00;-17125.47;5013243;28;20079;-76
2023/05/28 05:16:12;;;;;;;13.45;5.97;;;;;;;-148.88;100.00;-17125.47;5011714;28;20022;-75
2023/05/28 05:18:38;;;;;;;13.68;9.25;;;;;;;-148.88;100.00;-17125.47;5012968;28;20481;-75
2023/05/28 05:21:03;;;;;;;14.07;9.63;;;;;;;-148.88;100.00;-17125.47;5012894;28;20496;-76
2023/05/28 05:23:29;;;;;;;19.73;10.95;;;;;;;-148.88;100.00;-17125.47;5013195;28;20456;-76
2023/05/28 05:25:54;;;;;;;14.95;6.20;;;;;;;-148.88;100.00;-17125.47;5012917;28;20030;-75
2023/05/28 05:28:20;;;;;;;15.20;9.75;;;;;;;-148.88;100.00;-17125.47;5011635;28;20057;-75
2023/05/28 05:30:45;;;;;;;15.85;9.05;;;;;;;-148.88;100.00;-17125.47;5012414;28;20034;-75
2023/05/28 05:33:11;;;;;;;13.40;9.27;;;;;;;-148.88;100.00;-17125.47;5013368;28;20030;-76
2023/05/28 05:35:36;;;;;;;13.13;9.77;;;;;;;-148.88;100.00;-17125.47;5011571;28;20038;-76
2023/05/28 05:38:01;;;;;;;16.45;9.38;;;;;;;-148.88;100.00;-17125.47;5012845;28;20032;-76
2023/05/28 05:40:27;;;;;;;17.58;9.25;;;;;;;-148.88;100.00;-17125.47;5012683;28;20022;-75
2023/05/28 05:42:53;;;;;;;15.55;9.13;;;;;;;-148.88;100.00;-17125.47;5012706;28;20025;-75
2023/05/28 05:45:20;;;;;;;15.00;8.50;;;;;;;-148.88;100.00;-17125.47;5012583;28;20445;-75
2023/05/28 05:47:46;;;;;;;14.68;9.23;;;;;;;-148.88;100.00;-17125.47;5012627;28;20064;-75
2023/05/28 05:50:14;;;;;;;13.77;8.68;;;;;;;-148.88;100.00;-17125.47;5011202;28;20120;-75
2023/05/28 05:52:40;;;;;;;16.65;8.60;;;;;;;-148.88;100.00;-17125.47;5012562;28;20026;-75
2023/05/28 05:55:07;;;;;;;14.48;8.45;;;;;;;-148.88;100.00;-17125.47;5012367;28;20026;-75
2023/05/28 05:57:33;;;;;;;17.20;8.68;;;;;;;-148.88;100.00;-17125.47;5012642;28;20022;-75
2023/05/28 05:59:59;;;;;;;16.13;8.60;;;;;;;-148.88;100.00;-17125.47;5012762;28;20077;-75
2023/05/28 06:02:25;;;;;;;16.70;8.43;;;;;;;-148.88;100.00;-17125.47;5012525;28;20485;-75
2023/05/28 06:04:51;;;;;;;13.70;8.38;;;;;;;-148.88;100.00;-17125.47;5012851;28;20022;-75
2023/05/28 06:07:17;;;;;;;14.90;8.80;;;;;;;-148.88;100.00;-17125.47;5013064;28;20032;-74
2023/05/28 06:09:42;;;;;;;16.13;7.97;;;;;;;-148.88;100.00;-17125.47;5012779;28;20408;-75
2023/05/28 06:12:08;;;;;;;14.45;7.22;;;;;;;-148.88;100.00;-17125.47;5012853;28;20025;-75
2023/05/28 06:14:33;;;;;;;14.27;7.32;;;;;;;-148.88;100.00;-17125.47;5012349;28;20022;-75
2023/05/28 06:16:58;;;;;;;15.18;7.53;;;;;;;-148.88;100.00;-17125.47;5012661;28;20028;-75
2023/05/28 06:19:24;;;;;;;12.85;6.88;;;;;;;-148.88;100.00;-17125.47;5012195;28;20109;-75
2023/05/28 06:21:51;;;;;;;11.55;6.82;;;;;;;-148.88;100.00;-17125.47;5012416;28;20049;-75
2023/05/28 06:24:16;;;;;;;12.32;6.47;;;;;;;-148.88;100.00;-17125.47;5011015;28;20018;-75
2023/05/28 06:26:42;;;;;;;13.45;6.80;;;;;;;-148.88;100.00;-17125.47;5012326;28;20018;-75
2023/05/28 06:29:09;;;;;;;12.02;6.45;;;;;;;-148.88;100.00;-17125.47;5012272;28;20130;-75
2023/05/28 06:31:35;;;;;;;10.48;7.28;;;;;;;-148.88;100.00;-17125.47;5012280;28;20370;-75
2023/05/28 06:34:01;;;;;;;10.85;6.00;;;;;;;-148.88;100.00;-17125.47;5011539;28;20029;-75
2023/05/28 06:36:26;;;;;;;14.48;7.03;;;;;;;-148.88;100.00;-17125.47;5012338;28;20052;-75
2023/05/28 06:38:52;;;;;;;13.95;6.95;;;;;;;-148.88;100.00;-17125.47;5010806;28;20051;-75
2023/05/28 06:41:17;;;;;;;10.15;6.78;;;;;;;-148.88;100.00;-17125.47;5013816;28;20026;-75
2023/05/28 06:43:43;;;;;;;12.75;7.30;;;;;;;-148.88;100.00;-17125.47;5015763;28;20481;-75
2023/05/28 06:46:08;;;;;;;12.38;7.15;;;;;;;-148.88;100.00;-17125.47;5015850;28;20045;-75
2023/05/28 06:48:34;;;;;;;10.20;5.78;;;;;;;-148.88;100.00;-17125.47;5016153;28;20025;-75
2023/05/28 06:50:59;;;;;;;13.68;6.78;;;;;;;-148.88;100.00;-17125.47;5015712;28;20030;-75
2023/05/28 06:53:25;;;;;;;9.40;6.10;;;;;;;-148.88;98.38;-17125.47;5014408;28;20025;-75
2023/05/28 06:55:51;;;;;;;13.38;6.75;;;;;;;-148.88;96.82;-17125.47;5015539;28;20072;-75
2023/05/28 06:58:16;;;;;;;10.70;5.93;;;;;;;-148.88;96.88;-17125.47;5015489;28;20064;-75
2023/05/28 07:00:41;;;;;;;11.85;6.82;;;;;;;-148.88;98.95;-17125.47;5015700;28;20017;-75
2023/05/28 07:03:08;;;;;;;13.18;6.38;;;;;;;-148.88;100.00;-17125.47;5015516;28;20097;-75
2023/05/28 07:05:35;;;;;;;13.82;7.45;;;;;;;-148.88;100.00;-17125.47;5015504;28;20026;-75
2023/05/28 07:08:01;;;;;;;11.60;6.72;;;;;;;-148.88;100.00;-17125.47;5014285;28;20439;-75
2023/05/28 07:10:26;;;;;;;15.32;7.55;;;;;;;-148.88;100.00;-17125.47;5015592;28;20032;-75
2023/05/28 07:12:52;;;;;;;10.88;6.43;;;;;;;-148.88;100.00;-17125.47;5015327;28;20105;-75
2023/05/28 07:15:17;;;;;;;9.32;6.13;;;;;;;-148.88;100.00;-17125.47;5013826;28;20025;-76
2023/05/28 07:17:42;;;;;;;10.68;6.00;;;;;;;-148.88;97.88;-17125.47;5015290;28;20030;-75
2023/05/28 07:20:08;;;;;;;13.48;6.25;;;;;;;-148.88;96.40;-17125.47;5015071;28;20057;-75
2023/05/28 07:22:34;;;;;;;10.55;5.40;;;;;;;-148.88;96.81;-17125.47;5013638;28;20137;-76
2023/05/28 07:25:00;;;;;;;9.32;5.57;;;;;;;-148.88;96.69;-17125.47;5013307;28;20017;-75
2023/05/28 07:27:25;;;;;;;11.27;5.57;;;;;;;-148.88;96.75;-17125.47;5014792;28;20025;-75
2023/05/28 07:29:50;;;;;;;9.27;5.45;;;;;;;-148.88;98.00;-17125.47;5014673;28;20025;-76
2023/05/28 07:32:16;;;;;;;8.90;5.40;;;;;;;-148.88;96.54;-17125.47;5014718;28;20500;-75
2023/05/28 07:34:41;;;;;;;11.00;5.30;;;;;;;-148.88;95.98;-17125.47;5014747;28;20018;-75
2023/05/28 07:37:07;;;;;;;10.77;4.55;;;;;;;-148.88;90.56;-17125.47;5014585;28;20032;-75
2023/05/28 07:39:32;;;;;;;14.18;5.15;;;;;;;-148.88;90.14;-17125.47;5014493;28;20064;-75
2023/05/28 07:41:57;;;;;;;9.35;4.95;;;;;;;-148.88;90.96;-17125.47;5014605;28;20485;-76
2023/05/28 07:44:23;;;;;;;12.38;5.20;;;;;;;-148.88;89.90;-17125.47;5014631;28;20539;-76
2023/05/28 07:46:48;;;;;;;8.20;5.00;;;;;;;-148.88;87.01;-17125.47;5014199;28;20045;-76
2023/05/28 07:49:14;;;;;;;8.95;5.20;;;;;;;-148.88;90.90;-17125.47;5013034;28;20116;-75
2023/05/28 07:51:39;;;;;;;9.20;4.82;;;;;;;-148.88;90.56;-17125.47;5014340;28;20026;-75
2023/05/28 07:54:04;;;;;;;10.57;4.72;;;;;;;-148.88;88.72;-17125.47;5013574;28;20555;-76
2023/05/28 07:56:30;;;;;;;8.57;4.40;;;;;;;-148.88;87.35;-17125.47;5014175;28;20017;-76
2023/05/28 07:58:56;;;;;;;10.65;4.70;;;;;;;-148.88;86.46;-17125.47;5013948;28;20496;-75
2023/05/28 08:01:21;;;;;;;8.25;4.30;;;;;;;-148.88;84.29;-17125.47;5013908;28;20381;-76
2023/05/28 08:03:50;;;;;;;6.97;3.95;;;;;;;-148.88;82.76;-17125.47;5014142;28;20469;-76
2023/05/28 08:06:16;;;;;;;11.02;4.35;;;;;;;-148.88;82.30;-17125.47;5013813;28;20484;-76
2023/05/28 08:08:43;;;;;;;9.60;4.07;;;;;;;-148.88;81.33;-17125.47;5012743;28;20101;-76
2023/05/28 08:11:10;;;;;;;8.35;3.58;;;;;;;-148.88;78.83;-17125.47;5013736;28;20562;-75
2023/05/28 08:13:36;;;;;;;9.80;3.75;;;;;;;-148.88;77.48;-17125.47;5013958;28;20025;-75
2023/05/28 08:16:02;;;;;;;7.45;3.28;;;;;;;-148.88;74.24;-17125.47;5013723;28;20473;-76
2023/05/28 08:18:28;;;;;;;7.60;3.40;;;;;;;-148.88;69.88;-17125.47;5012291;28;20021;-76
2023/05/28 08:20:53;;;;;;;9.52;3.80;;;;;;;-148.88;70.65;-17125.47;5013473;28;20341;-76
2023/05/28 08:23:19;;;;;;;9.23;3.40;;;;;;;-148.88;72.93;-17125.47;5013442;28;20033;-76
2023/05/28 08:25:44;;;;;;;8.27;2.92;;;;;;;-148.88;68.44;-17125.47;5013486;28;20535;-76
2023/05/28 08:28:10;;;;;;;5.60;2.65;;;;;;;-148.88;64.76;-17125.47;5012140;28;20036;-76
2023/05/28 08:30:35;;;;;;;6.43;2.65;;;;;;;-148.88;63.45;-17125.47;5012101;28;20032;-76
2023/05/28 08:33:01;;;;;;;8.00;3.13;;;;;;;-148.88;64.56;-17125.47;5012068;28;20496;-76
2023/05/28 08:35:27;;;;;;;6.95;2.90;;;;;;;-148.88;58.27;-17125.47;5013163;28;20049;-76
2023/05/28 08:37:52;;;;;;;7.60;2.97;;;;;;;-148.88;62.83;-17125.47;5012191;28;20119;-75
2023/05/28 08:40:18;;;;;;;6.97;2.88;;;;;;;-148.88;58.18;-17125.47;5013323;28;20034;-75
2023/05/28 08:42:44;;;;;;;8.43;2.65;;;;;;;-148.88;59.88;-17125.47;5013255;28;20058;-75
2023/05/28 08:45:10;;;;;;;8.18;2.97;;;;;;;-148.88;59.45;-17125.47;5013096;28;20396;-75
2023/05/28 08:47:37;;;;;;;8.20;2.97;;;;;;;-148.88;62.46;-17125.47;5013170;28;20056;-75
2023/05/28 08:50:05;;;;;;;7.32;2.92;;;;;;;-148.88;60.49;-17125.47;5013191;28;20052;-75
2023/05/28 08:52:33;;;;;;;7.38;3.08;;;;;;;-148.88;62.80;-17125.47;5013540;28;20028;-75
2023/05/28 08:55:00;;;;;;;6.28;2.63;;;;;;;-148.88;63.14;-17125.47;5013125;28;20025;-75
2023/05/28 08:57:27;;;;;;;7.40;2.67;;;;;;;-148.88;59.15;-17125.47;5013051;28;20025;-75
2023/05/28 08:59:53;;;;;;;6.35;2.83;;;;;;;-148.88;57.75;-17125.47;5011825;28;20022;-75
2023/05/28 09:02:23;;;;;;;5.95;2.80;;;;;;;-148.88;61.85;-17125.47;5013224;28;20033;-75
2023/05/28 09:04:49;;;;;;;7.68;2.95;;;;;;;-148.88;56.22;-17125.47;5012130;28;20108;-75
2023/05/28 09:07:15;;;;;;;9.05;3.55;;;;;;;-148.88;56.75;-17125.47;5011714;28;20017;-75
2023/05/28 09:09:40;;;;;;;6.95;3.40;;;;;;;-148.88;57.71;-17125.47;5013259;28;20476;-75
2023/05/28 09:12:11;;;;;;;7.85;2.75;;;;;;;-148.88;53.26;-17125.47;5013214;28;20061;-75
2023/05/28 09:14:41;;;;;;;8.32;3.13;;;;;;;-148.88;56.15;-17125.47;5011861;28;20018;-75
2023/05/28 09:17:13;;;;;;;8.23;3.22;;;;;;;-148.88;56.73;-17125.47;5013198;28;20029;-74
2023/05/28 09:19:39;;;;;;;11.10;3.45;;;;;;;-148.88;56.29;-17125.47;5011587;28;20022;-76
2023/05/28 09:22:04;;;;;;;7.97;3.17;;;;;;;-148.88;52.04;-17125.47;5012966;28;20037;-76
2023/05/28 09:24:30;;;;;;;6.75;3.35;;;;;;;-148.88;53.38;-17125.47;5012737;28;20025;-76
2023/05/28 09:27:00;;;;;;;7.30;3.00;;;;;;;-148.88;51.60;-17125.47;5012657;28;20026;-75
2023/05/28 09:29:26;;;;;;;8.43;2.97;;;;;;;-148.88;51.68;-17125.47;5012634;28;20104;-75
2023/05/28 09:31:59;;;;;;;8.45;3.63;;;;;;;-148.88;50.61;-17125.47;5012794;28;20108;-75
2023/05/28 09:34:29;;;;;;;8.50;2.92;;;;;;;-148.88;47.30;-17125.47;5012531;28;20033;-75
2023/05/28 09:37:05;;;;;;;7.82;3.30;;;;;;;-148.88;52.14;-17125.47;5012438;28;20030;-75
2023/05/28 09:39:31;;;;;;;7.70;2.83;;;;;;;-148.88;52.86;-17125.47;5011138;28;20452;-75
2023/05/28 09:42:09;;;;;;;7.63;3.15;;;;;;;-148.88;53.79;-17125.47;5012479;28;20057;-75
2023/05/28 09:44:36;;;;;;;7.20;2.90;;;;;;;-148.88;51.61;-17125.47;5013158;28;20104;-77
2023/05/28 09:47:11;;;;;;;6.10;2.58;;;;;;;-148.88;57.14;-17125.47;5011117;28;20037;-75
2023/05/28 09:49:36;;;;;;;5.97;2.80;;;;;;;-148.88;53.98;-17125.47;5012471;28;20109;-75
2023/05/28 09:52:04;;;;;;;8.15;3.20;;;;;;;-148.88;53.20;-17125.47;5012914;28;20034;-75
2023/05/28 09:54:35;;;;;;;5.82;2.85;;;;;;;-148.88;55.26;-17125.47;5012404;28;20093;-76
2023/05/28 09:57:02;;;;;;;10.43;3.28;;;;;;;-148.88;56.85;-17125.47;5012595;28;20093;-75
2023/05/28 09:59:30;;;;;;;10.70;3.42;;;;;;;-148.88;59.03;-17125.47;5012497;28;20337;-75
2023/05/28 10:02:18;;;;;;;7.97;3.40;;;;;;;-148.88;57.53;-17125.47;5012345;28;20029;-75
2023/05/28 10:04:45;;;;;;;6.93;2.85;;;;;;;-148.88;56.19;-17125.47;5012437;28;20093;-75
2023/05/28 10:07:14;;;;;;;6.15;2.92;;;;;;;-148.88;54.62;-17125.47;5011143;28;20034;-76
2023/05/28 10:09:40;;;;;;;7.07;3.50;;;;;;;-148.88;50.28;-17125.47;5012204;28;20022;-75
2023/05/28 10:12:12;;;;;;;7.13;3.05;;;;;;;-148.88;47.99;-17125.47;5012181;28;20022;-75
2023/05/28 10:14:39;;;;;;;8.37;3.43;;;;;;;-148.88;49.64;-17125.47;5012071;28;20030;-75
2023/05/28 10:17:07;;;;;;;8.00;3.08;;;;;;;-148.88;45.89;-17125.47;5014911;28;20718;-75
2023/05/28 10:19:34;;;;;;;9.90;3.17;;;;;;;-148.88;47.19;-17125.47;5015917;28;20026;-75
2023/05/28 10:21:59;;;;;;;7.40;3.60;;;;;;;-148.88;49.28;-17125.47;5014411;28;20425;-75
2023/05/28 10:24:25;;;;;;;12.77;3.80;;;;;;;-148.88;52.64;-17125.47;5015814;28;20128;-75
2023/05/28 10:26:53;;;;;;;6.78;3.03;;;;;;;-148.88;48.21;-17125.47;5015667;28;20026;-76
2023/05/28 10:29:18;;;;;;;8.73;3.47;;;;;;;-148.88;47.43;-17125.47;5018301;28;20139;-75
2023/05/28 10:31:44;;;;;;;7.20;3.13;;;;;;;-148.88;46.30;-17125.47;5015987;28;20053;-75
2023/05/28 10:34:16;;;;;;;9.35;3.30;;;;;;;-148.88;43.56;-17125.47;5015619;28;20041;-75
2023/05/28 10:36:53;;;;;;;7.32;3.00;;;;;;;-148.88;41.96;-17125.47;5015591;28;20156;-76
2023/05/28 10:39:18;;;;;;;8.73;3.38;;;;;;;-148.88;42.42;-17125.47;5014511;28;20041;-75
2023/05/28 10:41:44;;;;;;;9.05;3.28;;;;;;;-148.88;41.61;-17125.47;5015565;28;20029;-76
2023/05/28 10:44:10;;;;;;;7.65;3.33;;;;;;;-148.88;41.06;-17125.47;5015490;28;20472;-75
2023/05/28 10:46:39;;;;;;;7.97;2.83;;;;;;;-148.88;40.82;-17125.47;5015379;28;20030;-75
2023/05/28 10:49:16;;;;;;;7.65;3.03;;;;;;;-148.88;42.57;-17125.47;5015409;28;20022;-76
2023/05/28 10:51:57;;;;;;;9.40;3.17;;;;;;;-148.88;43.58;-17125.47;5021707;23;20455;-84
2023/05/28 10:54:46;;;;;;;7.57;3.30;;;;;;;-148.88;44.54;-17125.47;5019090;28;20172;-85
2023/05/28 10:57:13;;;;;;;7.80;3.40;;;;;;;-148.88;42.84;-17125.47;5017514;28;20410;-85